Date,TemperatureHighF,TemperatureAvgF,TemperatureLowF,DewpointHighF,DewpointAvgF,DewpointLowF,HumidityHigh,HumidityAvg,HumidityLow,PressureMaxIn,PressureMinIn,WindSpeedMaxMPH,WindSpeedAvgMPH,GustSpeedMaxMPH,PrecipitationSumIn
2012-1-1,70.1,50.9,42.1,51.5,44.8,37.9,96,81,52,30.15,30.03,7,0,7,0.00
2012-1-2,61.6,48.1,40.2,50.4,43.3,36.8,92,84,65,30.23,30.08,4,0,5,0.01
2012-1-3,71.9,50.1,39.7,52.6,43.2,37.0,94,79,48,30.29,30.17,3,0,3,0.00
2012-1-4,73.9,51.3,38.3,49.4,41.8,35.0,91,72,39,30.33,30.19,4,0,4,0.00
2012-1-5,76.3,51.6,38.0,53.8,42.9,34.1,90,74,41,30.24,30.06,5,0,5,0.00
2012-1-6,69.0,50.9,41.8,51.9,44.5,37.8,93,80,53,30.13,30.01,4,0,4,0.00
2012-1-7,75.0,51.4,35.3,42.7,32.7,22.9,92,57,23,30.15,30.03,15,0,15,0.01
2012-1-8,75.1,54.7,42.1,38.4,30.1,23.1,63,41,21,30.17,30.08,8,0,8,0.00
2012-1-9,73.6,48.5,34.7,46.0,36.0,28.1,78,64,37,30.20,30.06,4,0,4,0.00
2012-1-10,72.4,47.8,34.7,46.1,36.6,30.0,86,67,39,30.11,29.98,3,0,3,0.00
2012-1-11,77.0,49.3,34.4,41.2,33.9,29.6,85,60,27,30.08,29.93,5,0,5,0.00
2012-1-12,73.0,47.7,33.5,39.2,32.6,28.0,82,60,27,30.08,29.95,10,0,10,0.00
2012-1-13,74.8,48.2,33.3,43.7,35.0,27.6,82,63,32,30.17,30.05,6,0,6,0.00
2012-1-14,74.8,47.6,32.3,44.0,34.9,27.3,85,65,31,30.14,29.99,5,0,5,0.00
2012-1-15,54.6,42.8,32.8,44.3,34.8,27.9,91,73,59,30.08,29.94,15,0,15,0.00
2012-1-16,62.7,40.9,28.9,28.7,24.8,20.7,79,57,22,30.26,30.07,4,0,4,0.00
2012-1-17,64.3,40.9,27.5,36.0,27.2,20.0,77,61,27,30.36,30.24,4,0,4,0.00
2012-1-18,66.3,43.2,29.6,43.3,32.7,23.6,81,68,41,30.34,30.18,3,0,3,0.00
2012-1-19,50.1,41.9,33.1,45.4,36.6,28.2,89,82,69,30.20,29.96,5,0,5,0.02
2012-1-20,61.4,54.0,47.2,56.3,51.9,44.0,100,93,80,29.99,29.58,25,2,25,1.13
2012-1-21,58.7,50.3,41.9,55.8,46.8,38.4,100,89,60,30.08,29.59,14,1,17,0.49
2012-1-22,54.2,47.3,40.5,49.2,42.5,37.2,90,83,72,30.10,29.72,11,0,12,0.04
2012-1-23,54.4,51.2,47.4,52.8,50.4,46.2,100,97,85,30.08,29.57,19,0,19,0.53
2012-1-24,65.5,51.0,43.4,54.8,47.9,42.7,100,90,64,30.34,30.06,0,0,0,0.00
2012-1-25,75.5,54.0,43.0,58.6,48.6,41.2,98,83,55,30.38,30.23,0,0,0,0.00
2012-1-26,67.8,57.2,51.4,59.2,53.9,48.9,98,89,73,30.27,30.14,2,0,2,0.00
2012-1-27,77.5,55.6,43.9,51.7,38.4,26.2,97,60,22,30.20,30.11,5,0,5,0.00
2012-1-28,76.2,51.5,37.1,47.7,36.1,26.8,83,58,33,30.27,30.15,1,0,2,0.00
2012-1-29,75.2,51.4,37.1,52.1,42.9,33.4,88,75,41,30.20,30.03,0,0,0,0.00
2012-1-30,61.9,51.2,44.2,51.0,45.5,41.0,92,82,54,30.07,29.92,1,0,1,0.00
2012-1-31,72.0,53.9,46.6,55.2,48.2,42.8,93,82,53,30.12,29.97,2,0,2,0.00
2012-2-1,69.3,52.2,42.7,53.5,46.6,39.5,96,82,50,30.19,30.10,0,0,0,0.00
2012-2-2,77.8,51.5,37.4,41.9,37.0,33.5,95,64,21,30.17,29.88,2,0,2,0.00
2012-2-3,72.5,49.6,35.6,50.8,39.7,30.1,84,70,44,29.99,29.91,2,0,2,0.00
2012-2-4,77.8,51.2,37.1,47.6,40.4,33.0,91,70,33,30.04,29.96,1,0,1,0.00
2012-2-5,72.2,50.2,36.7,42.8,38.1,32.6,90,67,32,30.06,29.91,1,0,1,0.00
2012-2-6,75.2,53.5,40.4,48.7,40.7,36.1,87,65,33,29.93,29.67,1,0,1,0.01
2012-2-7,57.2,54.2,51.8,54.1,49.8,41.9,95,86,58,30.03,29.68,1,0,16,0.21
2012-2-8,78.8,56.0,43.9,56.0,49.2,42.1,96,80,44,30.18,30.01,0,0,1,0.00
2012-2-9,82.5,56.4,40.8,58.3,47.9,38.0,93,76,42,30.20,30.05,2,0,2,0.00
2012-2-10,66.8,53.3,42.1,56.8,47.6,38.9,93,82,60,30.12,29.99,2,0,2,0.00
2012-2-11,65.4,54.4,50.8,52.5,49.2,45.7,93,83,61,30.00,29.90,0,0,0,0.01
2012-2-12,69.8,53.8,48.3,52.1,46.2,41.9,87,76,52,30.00,29.88,1,0,1,0.01
2012-2-13,52.7,47.4,40.6,47.4,43.2,38.1,93,86,75,29.93,29.80,5,0,5,0.15
2012-2-14,70.0,48.9,38.1,50.2,42.1,36.3,95,80,44,30.03,29.90,0,0,0,0.01
2012-2-15,71.0,50.7,38.5,45.8,34.5,25.8,93,59,26,30.08,29.93,8,0,8,0.06
2012-2-16,80.3,54.4,41.3,40.0,32.4,26.6,70,46,21,30.18,30.06,3,0,4,0.00
2012-2-17,78.0,53.1,38.4,54.7,41.9,31.4,90,68,33,30.19,30.06,1,0,1,0.00
2012-2-18,70.5,54.6,44.4,51.2,47.1,39.1,95,78,45,30.14,29.99,2,0,2,0.00
2012-2-19,70.3,49.6,38.7,42.5,38.9,33.6,88,70,30,30.07,29.96,3,0,3,0.00
2012-2-20,66.3,52.3,45.3,51.1,44.9,40.2,87,77,57,30.14,29.99,0,0,0,0.00
2012-2-21,79.3,55.0,41.1,55.6,45.9,38.4,93,74,40,30.23,30.11,0,0,0,0.00
2012-2-22,88.8,61.1,46.1,52.7,48.0,43.5,93,68,27,30.20,29.99,7,0,7,0.00
2012-2-23,88.0,61.3,44.5,47.8,37.7,22.6,93,51,17,30.01,29.85,7,0,7,0.00
2012-2-24,87.3,62.7,51.1,47.9,34.8,22.1,81,39,21,30.11,29.88,5,0,5,0.00
2012-2-25,75.0,54.4,43.0,46.8,39.8,35.0,85,62,27,30.25,30.08,7,0,7,0.00
2012-2-26,67.7,47.7,35.2,40.7,34.2,23.8,87,63,27,30.11,29.75,3,0,4,0.00
2012-2-27,66.3,48.6,39.3,42.1,37.8,34.6,85,68,39,29.88,29.71,3,0,7,0.00
2012-2-28,67.6,49.8,38.1,41.0,37.9,33.2,85,66,33,30.15,29.85,11,0,11,0.00
2012-2-29,55.2,49.3,45.4,52.7,46.0,40.2,100,89,68,30.17,29.93,18,0,18,0.49
2012-3-1,65.1,49.4,42.0,53.8,45.3,38.9,97,86,58,30.18,30.09,9,0,9,0.07
2012-3-2,77.8,51.3,35.7,40.1,36.3,32.5,93,63,24,30.28,30.15,6,0,6,0.01
2012-3-3,83.5,54.4,36.4,50.0,40.7,31.6,85,64,30,30.28,30.13,7,0,7,0.00
2012-3-4,89.1,58.2,39.5,54.6,45.4,36.1,90,67,29,30.17,29.96,5,0,5,0.00
2012-3-5,84.3,57.0,41.3,51.1,44.4,38.1,93,69,24,30.01,29.88,8,0,8,0.00
2012-3-6,70.3,52.7,43.7,48.6,34.8,16.7,96,57,17,29.96,29.83,16,0,16,0.02
2012-3-7,80.5,53.3,38.1,34.2,26.6,18.8,60,39,17,30.11,29.94,12,0,12,0.00
2012-3-8,86.5,55.2,36.7,44.1,35.4,28.8,76,52,21,30.25,30.10,3,0,3,0.00
2012-3-9,88.5,57.5,38.8,48.4,38.7,33.5,83,56,17,30.26,30.05,4,0,4,0.00
2012-3-10,75.2,53.1,40.9,54.1,44.3,35.8,88,73,47,30.06,29.89,5,0,5,0.00
2012-3-11,67.3,53.1,46.5,49.5,44.6,41.3,84,73,52,29.99,29.92,7,0,7,0.00
2012-3-12,71.8,51.6,37.7,45.2,40.9,33.9,91,70,37,29.97,29.85,11,0,11,0.00
2012-3-13,56.6,54.1,52.4,53.9,50.5,44.8,98,88,72,29.93,29.81,15,1,15,0.45
2012-3-14,59.4,55.8,52.9,57.8,54.0,50.5,98,94,86,30.04,29.86,11,0,11,0.20
2012-3-15,63.9,58.1,54.7,58.4,55.4,53.3,98,91,79,30.07,29.96,8,0,8,0.01
2012-3-16,62.5,55.6,46.5,56.7,52.8,45.8,100,91,77,29.99,29.61,17,0,17,0.92
2012-3-17,49.2,45.4,41.0,48.1,43.9,38.4,100,95,82,29.67,29.43,2,0,2,0.02
2012-3-18,61.3,47.7,42.4,40.0,36.9,31.4,88,68,37,29.86,29.55,11,0,11,0.01
2012-3-19,68.8,49.7,36.6,39.2,35.3,31.3,83,60,30,30.00,29.83,1,0,1,0.00
2012-3-20,77.0,58.2,48.8,53.5,45.2,38.5,79,63,40,30.11,29.99,1,0,1,0.00
2012-3-21,81.8,58.8,44.9,57.8,49.4,41.4,91,73,41,30.10,29.88,3,0,3,0.00
2012-3-22,67.4,54.6,45.2,52.4,45.6,34.2,93,74,35,29.94,29.85,7,0,7,0.00
2012-3-23,76.3,52.7,38.4,43.5,38.2,34.1,89,62,26,30.01,29.79,4,0,4,0.00
2012-3-24,53.2,48.8,44.1,46.5,41.9,32.9,100,79,47,29.83,29.72,8,0,8,0.45
2012-3-25,60.7,49.0,41.0,57.6,47.5,40.8,100,95,76,29.82,29.69,0,0,0,0.47
2012-3-26,65.9,51.6,41.6,44.7,41.8,39.3,95,72,41,30.01,29.80,12,0,12,0.00
2012-3-27,61.5,53.4,49.4,53.2,47.6,39.8,100,81,64,29.96,29.78,18,0,18,0.74
2012-3-28,69.3,57.4,51.5,56.2,52.0,46.9,100,84,52,30.04,29.86,3,0,3,0.01
2012-3-29,68.5,55.9,45.6,53.6,48.8,43.6,95,78,52,30.06,29.97,2,0,2,0.00
2012-3-30,74.7,60.8,50.8,58.6,52.9,48.8,95,77,54,30.03,29.82,2,0,2,0.00
2012-3-31,59.2,53.7,46.7,55.1,49.2,42.0,100,85,69,29.95,29.63,23,0,23,0.67
2012-4-1,71.3,52.7,41.8,47.0,42.8,37.5,95,72,34,30.19,29.94,7,0,9,0.01
2012-4-2,75.2,54.4,40.8,49.0,43.3,38.0,92,70,33,30.17,29.97,2,0,2,0.00
2012-4-3,77.6,57.1,45.7,52.5,47.6,42.8,91,74,34,30.03,29.91,5,0,5,0.01
2012-4-4,72.0,53.2,42.5,46.8,40.4,34.5,92,65,32,30.12,30.02,6,0,9,0.00
2012-4-5,69.3,50.3,38.9,41.4,36.6,31.8,82,62,33,30.10,29.99,6,0,13,0.00
2012-4-6,77.8,52.5,37.0,42.0,38.1,32.4,88,63,24,30.19,30.06,1,0,1,0.00
2012-4-7,81.7,55.7,37.9,46.3,40.2,33.2,86,61,27,30.09,29.93,1,0,1,0.00
2012-4-8,79.5,55.3,41.3,49.0,42.4,37.1,88,65,27,29.99,29.89,9,0,9,0.00
2012-4-9,77.7,56.7,41.7,49.6,41.9,23.5,88,63,19,29.93,29.72,8,0,8,0.00
2012-4-10,58.7,54.8,51.7,55.9,50.3,39.2,100,85,60,29.82,29.71,1,0,5,0.35
2012-4-11,60.1,53.5,48.6,51.8,48.9,45.3,100,85,62,29.92,29.71,12,0,14,0.16
2012-4-12,67.3,53.3,46.1,55.1,47.8,41.1,100,84,42,29.96,29.74,136,1,137,0.99
2012-4-13,59.7,49.8,44.6,55.9,47.3,42.2,100,92,68,29.78,29.61,137,4,137,0.57
2012-4-14,74.5,54.8,43.9,51.6,44.8,39.8,88,71,42,30.06,29.77,137,0,137,0.00
2012-4-15,79.2,57.3,43.4,57.5,48.7,41.1,96,76,40,30.14,30.05,7,0,7,0.00
2012-4-16,80.0,58.3,45.0,51.1,45.7,36.1,92,68,25,30.16,30.08,7,0,8,0.00
2012-4-17,77.8,60.2,49.9,58.5,50.6,44.1,92,73,37,30.11,29.98,10,0,10,0.00
2012-4-18,80.8,60.4,49.3,57.0,50.9,46.3,92,73,43,30.08,29.99,4,0,4,0.00
2012-4-19,86.1,66.4,54.0,66.3,58.4,52.2,95,77,49,30.08,29.96,3,0,3,0.00
2012-4-20,96.8,72.6,55.5,63.9,58.9,53.8,96,67,30,30.00,29.86,2,0,2,0.00
2012-4-21,98.4,74.9,56.6,66.7,59.7,52.7,91,63,27,29.90,29.75,2,0,2,0.00
2012-4-22,94.0,72.1,59.1,66.9,60.5,54.0,90,69,38,29.81,29.73,5,0,5,0.00
2012-4-23,79.7,64.6,56.6,59.8,54.8,52.6,90,72,48,29.92,29.78,9,0,9,0.00
2012-4-24,79.5,65.4,56.6,60.5,55.3,51.9,87,71,51,29.95,29.83,9,0,9,0.00
2012-4-25,78.3,64.6,58.5,59.6,56.6,53.5,94,77,49,29.93,29.67,7,0,7,0.19
2012-4-26,69.3,58.5,50.9,57.6,50.5,44.0,96,77,45,30.11,29.67,12,0,12,0.05
2012-4-27,77.4,58.2,44.2,51.9,45.7,40.3,89,66,36,30.14,30.04,6,0,6,0.00
2012-4-28,83.1,63.3,48.2,59.0,52.2,44.8,92,70,42,30.05,29.80,4,0,7,0.00
2012-4-29,89.8,67.6,50.8,60.2,54.0,47.9,93,66,32,29.83,29.74,4,0,4,0.00
2012-4-30,88.5,65.5,53.7,60.0,53.9,49.7,90,69,33,29.88,29.81,10,0,10,0.00
2012-5-1,72.6,57.6,48.7,50.5,47.2,42.9,90,70,37,29.85,29.80,9,0,9,0.00
2012-5-2,72.3,56.2,45.6,50.1,44.8,41.2,88,67,42,29.90,29.80,8,0,8,0.00
2012-5-3,67.8,58.8,50.4,57.9,50.9,44.7,90,76,63,30.00,29.85,8,0,8,0.02
2012-5-4,71.8,58.9,50.7,55.6,49.5,45.5,94,73,49,30.12,29.98,9,0,9,0.02
2012-5-5,83.8,61.9,44.7,49.9,45.1,39.0,92,60,22,30.12,29.95,7,0,7,0.00
2012-5-6,89.6,67.2,48.1,49.2,45.6,40.3,88,52,21,29.98,29.89,7,0,7,0.00
2012-5-7,92.3,70.5,50.6,51.8,46.7,40.4,85,48,20,29.94,29.84,8,0,8,0.00
2012-5-8,96.3,71.7,51.9,57.4,48.8,44.6,83,49,23,29.89,29.78,6,0,6,0.00
2012-5-9,89.0,68.0,53.0,59.4,52.1,45.9,85,59,33,29.86,29.77,11,0,11,0.00
2012-5-10,90.3,67.6,49.8,53.6,47.2,41.7,88,53,25,29.83,29.74,8,0,9,0.00
2012-5-11,93.5,70.3,50.9,54.3,45.3,35.1,84,47,20,29.89,29.77,7,0,7,0.00
2012-5-12,93.3,70.3,52.8,56.4,47.9,39.3,79,49,24,29.95,29.87,6,0,7,0.00
2012-5-13,79.3,62.6,53.9,57.4,52.1,47.4,88,70,43,29.99,29.90,11,0,11,0.00
2012-5-14,77.3,61.7,51.8,55.4,50.0,47.1,88,67,44,30.01,29.93,9,0,9,0.00
2012-5-15,80.8,62.1,52.2,59.4,52.4,48.8,90,73,45,29.97,29.86,10,0,10,0.00
2012-5-16,82.8,63.5,52.6,61.9,53.7,48.4,89,72,47,29.95,29.83,8,0,8,0.00
2012-5-17,74.0,59.8,52.7,54.7,50.7,47.4,89,74,49,29.86,29.78,11,0,11,0.00
2012-5-18,83.8,62.9,47.9,52.1,47.7,43.3,89,62,28,29.88,29.80,9,0,9,0.00
2012-5-19,87.5,65.5,49.1,54.3,48.9,44.1,87,59,29,29.90,29.82,7,0,7,0.00
2012-5-20,92.0,68.3,53.4,58.6,51.7,46.9,80,59,27,29.92,29.81,8,0,8,0.00
2012-5-21,78.5,63.7,53.4,58.8,53.7,48.3,90,72,39,30.02,29.90,10,0,10,0.00
2012-5-22,80.5,65.3,55.2,57.7,53.9,51.1,93,70,38,30.03,29.94,12,0,12,0.00
2012-5-23,78.5,63.3,53.4,54.2,51.5,48.9,91,68,37,29.96,29.82,11,0,11,0.00
2012-5-24,76.3,60.7,50.5,54.4,49.7,45.8,88,69,41,29.84,29.63,12,0,12,0.00
2012-5-25,73.0,57.0,49.2,50.2,45.6,41.8,81,67,46,29.75,29.62,15,0,15,0.00
2012-5-26,69.2,57.9,50.6,52.7,48.9,45.8,86,73,56,30.01,29.74,13,0,13,0.00
2012-5-27,73.6,59.7,52.9,55.5,50.7,47.7,85,73,52,30.07,29.83,8,0,13,0.00
2012-5-28,72.4,59.5,51.6,54.2,49.7,45.8,92,71,50,30.00,29.92,8,0,8,0.00
2012-5-29,79.5,61.7,47.9,56.3,49.8,44.0,89,68,40,29.99,29.89,7,0,7,0.00
2012-5-30,89.3,66.5,49.9,59.5,52.1,46.1,90,64,32,30.01,29.90,8,0,8,0.00
2012-5-31,96.5,72.5,52.4,62.4,54.3,47.9,87,57,28,29.95,29.74,7,0,7,0.00
2012-6-1,94.5,73.1,58.8,64.3,57.9,53.2,84,62,34,29.76,29.65,9,0,9,0.00
2012-6-2,84.4,66.8,56.0,62.6,56.0,50.7,90,70,44,29.87,29.74,7,0,9,0.00
2012-6-3,86.3,65.5,52.3,55.3,49.6,41.0,90,62,27,29.86,29.77,8,0,8,0.00
2012-6-4,62.2,58.4,52.4,58.2,52.6,46.9,92,81,72,30.03,29.80,14,0,14,0.09
2012-6-5,72.4,59.1,49.7,50.9,47.3,43.8,89,67,43,30.10,30.01,11,0,11,0.00
2012-6-6,78.5,61.5,48.4,52.0,48.3,42.1,91,66,37,30.03,29.87,9,0,9,0.00
2012-6-7,81.5,63.3,48.8,58.1,51.7,44.7,88,69,39,29.94,29.87,9,0,9,0.00
2012-6-8,78.3,62.8,53.0,53.9,49.8,44.2,93,67,33,29.90,29.83,11,0,11,0.00
2012-6-9,85.7,65.8,48.4,51.0,45.0,36.8,89,54,19,29.91,29.76,8,0,8,0.00
2012-6-10,94.3,74.5,56.9,49.4,42.9,34.8,66,35,17,29.82,29.76,9,0,9,0.00
2012-6-11,97.3,74.8,55.4,55.2,49.1,42.2,78,46,21,29.86,29.80,8,0,8,0.00
2012-6-12,92.2,71.9,56.9,62.3,55.7,50.5,82,60,32,29.87,29.79,13,0,13,0.00
2012-6-13,87.4,68.3,54.2,61.7,55.1,50.7,89,66,39,29.84,29.65,3,0,9,0.00
2012-6-14,86.5,67.7,54.4,59.3,53.5,48.8,87,63,36,29.72,29.66,11,0,11,0.00
2012-6-15,93.3,71.0,52.1,57.7,51.5,46.6,84,55,28,29.73,29.66,6,0,6,0.00
2012-6-16,108.9,81.8,61.4,63.5,56.1,51.1,82,48,21,29.75,29.65,5,0,7,0.00
2012-6-17,98.7,77.4,61.9,62.5,57.4,53.4,76,53,30,29.78,29.67,10,0,10,0.00
2012-6-18,89.3,68.5,57.2,59.4,53.4,43.0,89,63,27,29.80,29.71,10,0,10,0.00
2012-6-19,90.5,70.1,53.0,57.4,51.8,47.8,87,57,30,29.81,29.71,7,0,7,0.00
2012-6-20,99.5,75.4,57.0,55.0,51.1,45.3,82,48,20,29.76,29.68,9,0,9,0.00
2012-6-21,70.9,61.4,54.3,54.6,52.0,47.9,84,72,56,29.90,29.70,13,0,13,0.00
2012-6-22,76.0,61.7,50.9,58.0,52.2,46.2,85,72,52,29.88,29.76,10,0,10,0.00
2012-6-23,74.7,62.4,54.7,55.4,50.1,46.6,87,66,41,29.86,29.75,9,0,10,0.00
2012-6-24,75.5,61.8,51.4,50.2,48.2,44.3,88,64,36,29.95,29.85,11,0,11,0.00
2012-6-25,77.0,62.7,52.2,54.4,50.7,47.8,87,67,39,30.00,29.93,10,0,10,0.00
2012-6-26,82.8,65.8,53.3,56.4,52.1,48.0,89,65,36,29.98,29.80,9,0,9,0.00
2012-6-27,89.6,68.2,52.0,54.8,49.7,40.4,87,57,22,29.87,29.78,8,0,8,0.00
2012-6-28,85.8,67.1,54.2,58.3,54.4,49.5,89,67,36,30.00,29.85,9,0,9,0.00
2012-6-29,79.2,65.9,57.7,61.3,57.3,54.0,91,75,48,30.02,29.92,10,0,10,0.00
2012-6-30,82.8,68.7,60.0,65.6,60.7,56.1,90,77,56,29.95,29.84,9,0,9,0.00
2012-7-1,78.3,66.2,59.7,64.1,58.9,54.7,88,78,60,29.90,29.78,9,0,9,0.00
2012-7-2,82.1,67.6,58.7,63.4,58.2,52.6,91,74,49,29.83,29.75,12,0,12,0.00
2012-7-3,87.8,68.7,53.7,62.2,55.5,50.4,91,66,40,29.82,29.69,10,0,10,0.00
2012-7-4,91.8,69.3,55.6,61.2,55.4,48.1,89,65,24,29.79,29.69,9,0,9,0.00
2012-7-5,79.5,64.5,53.8,57.3,53.2,50.1,90,69,42,29.92,29.79,8,0,9,0.00
2012-7-6,89.2,68.6,51.8,59.4,53.6,48.1,92,64,28,29.93,29.84,9,0,9,0.00
2012-7-7,97.3,74.4,55.3,57.8,51.5,41.7,83,50,21,29.90,29.81,10,0,10,0.00
2012-7-8,88.5,69.5,56.6,59.7,55.2,51.9,87,64,33,29.93,29.86,8,0,8,0.00
2012-7-9,89.6,68.7,55.5,60.5,54.8,50.5,90,65,28,29.97,29.84,8,0,8,0.00
2012-7-10,101.3,74.9,53.8,58.8,54.1,49.5,91,55,20,29.87,29.71,6,0,6,0.00
2012-7-11,106.4,80.8,58.9,60.7,54.1,49.1,78,45,17,29.79,29.68,8,0,8,0.00
2012-7-12,100.0,78.0,63.9,63.4,57.6,53.2,76,52,27,29.76,29.68,8,0,8,0.00
2012-7-13,79.6,64.9,56.3,59.4,54.8,51.9,88,71,49,29.85,29.73,10,0,10,0.00
2012-7-14,84.8,67.4,56.8,61.4,56.0,52.2,87,69,44,29.86,29.75,10,0,10,0.00
2012-7-15,90.3,69.3,56.4,63.5,56.9,52.5,89,68,36,29.83,29.71,10,0,10,0.00
2012-7-16,77.5,64.5,57.1,59.2,54.9,51.8,89,72,51,29.84,29.71,10,0,10,0.00
2012-7-17,78.7,65.2,58.8,57.7,53.6,51.1,79,67,47,29.92,29.81,13,0,13,0.00
2012-7-18,81.5,66.1,56.2,59.8,55.2,51.1,85,70,47,29.93,29.85,10,0,10,0.00
2012-7-19,82.5,65.9,55.0,60.6,55.9,51.6,90,72,45,29.96,29.88,11,0,11,0.00
2012-7-20,95.0,72.9,57.2,61.7,57.8,54.3,91,64,33,30.00,29.86,8,0,8,0.00
2012-7-21,104.1,78.6,59.2,62.2,56.8,53.4,86,53,24,29.90,29.76,8,0,8,0.00
2012-7-22,99.2,77.2,61.6,62.5,56.5,48.8,82,54,20,29.82,29.71,8,0,10,0.00
2012-7-23,93.5,72.9,60.4,61.2,56.5,51.7,82,60,26,29.83,29.75,11,0,11,0.00
2012-7-24,92.3,69.7,56.0,61.5,56.4,51.7,89,66,27,29.87,29.77,10,0,10,0.00
2012-7-25,85.2,67.5,56.9,62.0,57.0,53.3,90,71,45,29.90,29.81,8,0,8,0.00
2012-7-26,81.8,65.5,56.0,60.5,55.8,52.4,89,73,47,29.90,29.81,9,0,9,0.00
2012-7-27,87.5,66.3,54.0,60.4,55.5,50.7,92,71,38,29.93,29.84,10,0,10,0.00
2012-7-28,86.1,67.6,55.6,61.1,56.6,52.1,90,71,38,29.95,29.88,10,0,10,0.00
2012-7-29,89.9,68.1,54.3,60.9,55.5,50.9,91,68,32,29.96,29.83,9,0,9,0.00
2012-7-30,102.5,74.1,54.8,61.1,55.3,49.3,92,59,19,29.90,29.76,6,0,7,0.00
2012-7-31,100.4,76.5,59.9,62.2,57.2,53.5,86,56,27,29.88,29.81,7,0,7,0.00
2012-8-1,95.5,73.0,57.0,62.0,55.7,52.6,89,59,27,29.95,29.84,9,0,9,0.00
2012-8-2,99.7,74.3,57.9,61.1,55.8,50.8,88,58,22,29.90,29.75,11,0,11,0.00
2012-8-3,90.6,69.6,56.7,61.7,56.5,52.5,89,66,34,29.81,29.69,10,0,10,0.00
2012-8-4,80.6,64.9,57.7,62.1,57.0,53.6,89,76,53,29.90,29.73,9,0,10,0.00
2012-8-5,85.5,67.6,59.4,63.6,58.3,53.5,90,74,46,29.99,29.87,5,0,8,0.00
2012-8-6,93.4,70.6,55.7,61.5,56.3,52.0,89,65,33,30.03,29.91,8,0,8,0.00
2012-8-7,92.5,72.7,57.3,59.7,54.5,46.1,87,58,27,29.96,29.87,8,0,8,0.00
2012-8-8,102.7,74.6,54.6,62.1,54.5,49.1,87,56,24,29.92,29.79,8,0,8,0.00
2012-8-9,105.3,78.5,57.8,59.8,53.5,44.3,83,49,18,29.85,29.71,7,0,7,0.00
2012-8-10,106.0,78.7,61.3,61.4,56.5,52.5,81,51,23,29.75,29.63,7,0,7,0.00
2012-8-11,106.0,78.6,57.9,60.6,53.8,43.1,85,50,16,29.71,29.61,9,0,9,0.00
2012-8-12,101.7,77.8,61.4,63.1,55.9,48.5,79,51,21,29.75,29.66,8,0,9,0.00
2012-8-13,104.2,80.7,64.8,61.6,55.9,41.6,77,48,17,29.76,29.65,10,0,10,0.00
2012-8-14,96.5,77.2,67.1,65.6,59.0,54.5,71,55,33,29.73,29.64,9,0,9,0.00
2012-8-15,93.7,71.3,59.8,63.9,58.7,54.7,88,67,36,29.81,29.68,9,0,9,0.00
2012-8-16,97.2,72.2,58.4,62.4,56.0,49.1,90,62,24,29.86,29.75,8,0,8,0.00
2012-8-17,93.1,71.2,56.5,62.1,56.3,52.5,90,64,27,29.91,29.80,11,0,11,0.00
2012-8-18,96.5,73.7,62.1,60.0,56.3,53.5,78,58,27,29.87,29.79,9,0,9,0.00
2012-8-19,89.8,68.8,56.6,59.5,55.7,52.6,88,66,33,29.88,29.78,8,0,8,0.00
2012-8-20,95.8,69.5,54.9,62.3,55.3,51.2,90,65,29,29.84,29.73,9,0,9,0.00
2012-8-21,90.2,68.2,55.3,61.2,55.7,51.8,89,68,33,29.84,29.75,9,0,9,0.00
2012-8-22,91.0,67.5,54.7,62.6,56.8,51.5,93,72,35,29.84,29.76,8,0,8,0.00
2012-8-23,95.5,70.0,56.0,63.8,58.2,53.0,93,70,33,29.85,29.72,7,0,7,0.00
2012-8-24,94.0,69.4,55.2,60.2,56.0,51.9,92,66,32,29.81,29.71,11,0,11,0.00
2012-8-25,89.8,66.0,56.1,61.8,55.9,52.8,91,73,37,29.79,29.68,10,0,10,0.00
2012-8-26,82.3,64.6,57.1,57.0,53.7,51.7,85,70,39,29.91,29.77,8,0,8,0.00
2012-8-27,97.5,69.4,51.5,62.9,55.7,48.6,93,67,28,29.96,29.83,4,0,6,0.00
2012-8-28,98.0,72.9,57.1,60.4,56.5,52.7,90,62,25,29.93,29.83,7,0,7,0.00
2012-8-29,105.0,73.6,53.4,61.0,52.4,46.6,87,54,20,29.86,29.67,7,0,7,0.00
2012-8-30,93.4,70.6,56.8,58.4,53.3,48.7,83,58,28,29.76,29.65,11,0,11,0.00
2012-8-31,73.6,61.7,57.8,57.2,54.3,52.0,87,77,55,29.90,29.76,11,0,11,0.00
2012-9-1,88.3,66.3,57.1,59.3,54.5,51.7,85,68,35,29.95,29.85,9,0,9,0.00
2012-9-2,101.0,71.0,52.2,57.5,51.6,43.8,93,58,21,29.90,29.78,0,0,0,0.00
2012-9-3,103.7,73.4,53.4,59.1,49.1,37.6,80,48,20,29.87,29.79,1,0,1,0.00
2012-9-4,98.3,71.9,57.3,59.4,53.8,47.5,88,58,24,29.92,29.82,6,0,6,0.00
2012-9-5,85.9,67.5,56.5,62.3,55.9,52.3,91,69,38,29.90,29.81,2,0,6,0.00
2012-9-6,92.3,68.4,57.8,61.4,55.9,51.9,89,68,32,29.92,29.81,8,0,8,0.00
2012-9-7,92.0,68.1,54.6,61.5,54.6,50.7,89,66,29,29.99,29.88,10,0,10,0.00
2012-9-8,87.4,66.7,56.1,58.9,54.5,51.5,89,68,33,29.98,29.85,9,0,9,0.00
2012-9-9,91.4,66.5,53.8,59.0,53.5,48.9,89,67,27,29.91,29.80,11,0,11,0.00
2012-9-10,97.5,68.2,50.4,61.5,52.9,47.4,93,64,26,29.85,29.71,7,0,7,0.00
2012-9-11,95.5,69.4,53.7,64.0,56.0,50.0,91,66,31,29.87,29.75,8,0,8,0.00
2012-9-12,95.3,70.2,54.8,61.7,57.0,51.9,93,67,30,29.97,29.85,1,0,1,0.00
2012-9-13,101.3,74.1,58.9,66.2,59.1,55.6,90,64,30,29.99,29.88,7,0,7,0.00
2012-9-14,95.5,70.7,57.4,63.1,56.5,51.2,89,65,24,30.00,29.88,6,0,6,0.00
2012-9-15,96.7,70.2,54.8,60.3,53.9,46.7,95,63,22,30.01,29.88,6,0,6,0.00
2012-9-16,95.1,69.7,55.6,59.6,54.5,46.8,90,63,27,29.95,29.84,7,0,7,0.00
2012-9-17,86.3,64.7,54.7,58.9,54.4,51.3,91,72,37,29.97,29.86,10,0,10,0.00
2012-9-18,85.8,63.8,53.9,56.6,52.8,49.5,89,70,35,30.02,29.91,8,0,8,0.00
2012-9-19,84.3,62.4,51.2,58.9,53.3,48.3,94,75,40,30.03,29.92,10,0,10,0.00
2012-9-20,87.7,63.8,50.0,57.6,51.9,47.1,94,70,32,29.99,29.86,10,0,10,0.00
2012-9-21,94.4,67.1,50.9,58.2,51.7,47.3,90,63,22,29.92,29.78,7,0,7,0.00
2012-9-22,100.5,71.0,52.9,61.2,51.9,45.4,88,57,24,29.85,29.75,5,0,5,0.00
2012-9-23,96.2,70.0,53.8,58.5,52.4,46.7,89,58,20,29.87,29.79,7,0,7,0.00
2012-9-24,61.7,56.5,52.6,53.5,51.6,49.5,95,84,68,29.88,29.81,4,0,4,0.00
2012-10-2,108.2,76.4,57.4,57.4,53.0,49.2,86,51,17,29.92,29.79,0,0,6,0.00
2012-10-3,109.5,75.3,57.6,57.2,52.4,47.6,81,51,15,29.81,29.69,0,0,5,0.00
2012-10-4,99.3,71.9,58.5,58.4,53.5,47.6,79,57,22,29.89,29.73,1,0,11,0.00
2012-10-5,85.1,65.8,56.7,62.1,56.4,53.6,90,74,44,30.04,29.89,1,0,10,0.00
2012-10-6,80.1,65.0,58.0,60.4,56.2,54.5,88,75,44,30.06,29.98,1,0,9,0.00
2012-10-7,82.5,63.7,53.4,56.4,53.2,50.6,92,71,38,29.98,29.87,1,0,8,0.00
2012-10-8,83.7,61.1,51.4,58.8,53.4,48.2,91,77,38,29.95,29.84,2,0,6,0.00
2012-10-9,82.5,62.3,49.5,58.6,53.1,46.4,92,74,41,29.95,29.83,6,0,6,0.00
2012-10-10,84.3,63.2,52.8,59.7,54.0,49.7,92,74,41,29.87,29.77,7,0,7,0.00
2012-10-11,61.9,58.3,55.5,54.2,52.6,50.9,87,81,75,29.89,29.79,8,0,8,0.00
2012-10-12,70.2,59.4,54.0,55.9,52.8,49.1,93,80,57,30.13,29.86,3,0,10,0.03
2012-10-13,85.5,61.5,47.5,60.3,52.8,44.9,95,76,41,30.23,30.07,6,0,10,0.03
2012-10-14,90.7,66.2,53.7,67.2,58.4,50.7,97,79,44,30.12,29.97,4,0,4,0.03
2012-10-15,91.5,67.8,55.2,64.7,58.6,53.1,96,76,40,30.00,29.86,5,0,5,0.03
2012-10-16,92.6,70.6,59.7,70.3,62.5,56.8,95,77,46,29.92,29.77,6,0,6,0.03
2012-10-17,96.0,69.4,53.1,59.3,48.7,36.6,96,57,18,29.84,29.73,7,0,8,0.03
2012-10-18,98.2,69.4,51.2,63.5,52.2,43.7,86,59,25,29.93,29.80,11,0,11,0.03
2012-10-19,85.5,68.7,60.1,68.7,62.7,57.7,98,83,54,29.96,29.81,10,0,10,0.03
2012-10-20,82.2,63.2,52.3,61.7,55.4,47.6,92,77,44,29.85,29.72,9,0,9,0.03
2012-10-21,68.3,55.7,47.7,49.2,46.6,42.8,91,73,41,29.85,29.75,8,0,8,0.03
2012-10-22,71.0,57.1,52.4,54.7,50.4,46.4,97,80,45,29.85,29.63,13,1,13,0.42
2012-10-23,72.0,56.2,49.1,57.0,50.2,44.9,100,83,42,29.98,29.83,9,0,9,0.06
2012-10-24,73.6,57.6,47.2,53.0,49.3,43.6,94,76,45,30.12,29.94,9,0,9,0.03
2012-10-25,75.6,59.8,50.7,58.0,51.9,45.8,91,76,51,30.18,30.10,5,0,5,0.03
2012-10-26,85.2,59.5,44.3,53.4,45.8,39.0,92,66,27,30.15,30.00,3,0,3,0.03
2012-10-27,90.8,64.0,48.7,61.4,53.1,45.6,92,71,33,30.01,29.86,0,0,0,0.03
2012-10-28,90.3,65.6,51.1,64.1,56.1,48.5,94,75,37,29.95,29.85,0,0,0,0.03
2012-10-29,88.2,64.5,51.2,66.5,56.6,48.6,95,78,46,30.03,29.93,0,0,0,0.03
2012-10-30,85.8,61.7,50.1,63.4,55.3,47.7,98,82,42,30.01,29.86,0,0,0,0.03
2012-10-31,65.7,61.0,57.4,58.6,56.5,55.4,95,86,73,29.94,29.88,0,0,0,0.03
2012-11-1,71.5,60.6,53.3,61.4,58.0,51.1,100,92,68,29.97,29.89,0,0,0,0.29
2012-11-2,78.0,58.1,48.7,61.0,52.6,47.5,98,83,55,30.01,29.92,0,0,0,0.03
2012-11-3,84.3,60.4,47.6,58.3,51.7,45.3,96,76,37,30.07,29.98,0,0,0,0.03
2012-11-4,87.3,62.8,49.3,60.3,53.4,46.3,94,74,38,30.13,29.99,0,0,0,0.00
2012-11-5,88.3,63.7,49.8,63.4,55.0,46.8,94,76,43,30.09,29.96,0,0,0,0.00
2012-11-6,89.8,63.5,48.7,63.7,54.8,45.6,95,76,37,30.02,29.90,0,0,0,0.00
2012-11-7,79.0,59.3,49.2,61.9,53.5,46.8,98,82,54,29.97,29.85,10,0,10,0.00
2012-11-8,62.7,53.9,47.9,51.9,45.8,40.2,86,74,53,29.89,29.80,11,0,11,0.03
2012-11-9,65.6,50.4,43.2,46.2,43.6,40.6,97,79,47,29.90,29.80,9,0,9,0.10
2012-11-10,64.1,48.6,40.3,44.8,40.8,36.8,93,77,45,30.17,29.89,6,0,6,0.00
2012-11-11,69.0,48.0,36.1,47.1,39.5,32.6,92,74,44,30.30,30.16,4,0,4,0.00
2012-11-12,71.9,49.4,36.9,45.8,38.7,32.9,88,70,35,30.31,30.17,4,0,4,0.00
2012-11-13,77.0,53.1,38.8,47.0,41.4,35.1,89,68,34,30.20,30.01,6,0,6,0.00
2012-11-14,77.2,54.2,42.5,53.9,45.3,39.0,91,74,42,30.05,29.94,4,0,4,0.00
2012-11-15,73.5,54.2,40.4,53.2,46.3,38.0,95,77,44,29.96,29.85,3,0,3,0.00
2012-11-16,65.0,55.4,47.1,59.3,52.8,45.0,100,91,69,29.92,29.78,3,0,3,0.13
2012-11-17,62.3,58.2,54.0,61.5,56.7,52.8,100,95,81,29.93,29.73,6,0,10,0.23
2012-11-18,63.4,54.5,47.7,60.2,52.2,47.7,100,93,65,30.10,29.90,3,0,5,0.22
2012-11-19,71.8,56.8,48.0,53.2,50.2,47.0,99,80,50,30.15,30.07,0,0,0,0.22
2012-11-20,72.1,59.2,49.5,59.9,54.1,46.8,100,84,65,30.09,29.94,14,1,14,0.22
2012-11-21,70.2,59.0,47.9,59.9,55.7,45.6,100,89,65,30.12,29.94,6,0,6,0.32
2012-11-22,74.2,53.0,42.1,53.8,46.4,40.3,99,81,46,30.18,30.08,1,0,1,0.22
2012-11-23,75.0,52.3,39.6,55.7,46.1,37.7,97,81,49,30.19,30.08,0,0,0,0.22
2012-11-24,77.5,53.0,40.0,58.2,46.9,38.4,99,82,47,30.12,29.95,0,0,0,0.22
2012-11-25,76.0,52.2,39.8,56.2,46.4,38.1,99,83,48,29.97,29.84,0,0,0,0.22
2012-11-26,75.3,52.0,39.1,57.0,46.1,36.8,98,82,52,30.00,29.89,0,0,0,0.22
2012-11-27,67.8,53.6,44.7,56.4,50.0,42.4,99,88,65,30.04,29.92,0,0,0,0.22
2012-11-28,62.2,53.9,48.4,62.2,53.2,46.9,100,97,89,29.98,29.77,7,0,22,0.82
2012-11-29,61.4,56.6,50.8,58.7,54.3,50.8,100,92,80,29.98,29.78,17,1,17,0.22
2012-11-30,60.8,57.8,54.4,59.2,57.6,54.1,100,99,92,29.95,29.71,21,2,21,2.43
2012-12-1,65.3,58.7,54.5,61.9,58.0,54.3,100,98,88,29.97,29.81,15,1,15,0.32
2012-12-2,63.6,56.1,46.1,63.4,55.9,45.5,100,99,94,30.04,29.67,32,2,32,1.50
2012-12-3,68.2,51.5,41.6,55.2,48.1,41.0,100,89,61,30.12,30.01,1,0,1,0.22
2012-12-4,63.2,55.1,48.8,57.2,51.9,47.2,98,89,76,30.15,30.05,0,0,0,0.22
2012-12-5,63.6,59.5,55.4,63.3,58.7,53.6,100,97,87,30.08,29.98,7,0,7,0.60
2012-12-6,56.6,54.3,46.7,56.6,54.1,45.9,100,99,94,30.06,29.97,4,0,4,0.22
2012-12-7,71.0,51.0,43.2,54.2,46.6,40.9,100,87,50,30.07,29.97,3,0,3,0.22
2012-12-8,65.8,47.7,37.5,49.1,41.7,35.2,97,82,44,30.04,29.94,2,0,2,0.22
2012-12-9,47.7,23.7,12.9,41.0,12.7,0.0,91,65,44,32.77,30.00,8,0,8,0.22
2012-12-10,12.9,12.9,12.9,0.0,0.0,0.0,92,73,36,32.77,32.77,7,0,7,0.22
2012-12-11,12.9,12.9,12.9,0.0,0.0,0.0,94,83,53,32.77,32.77,9,0,9,0.22
2012-12-12,12.9,12.9,12.9,0.0,0.0,0.0,96,81,56,32.77,32.77,7,0,8,0.22
2012-12-13,37.7,14.0,12.9,34.1,1.5,0.0,92,82,58,32.77,29.78,3,0,3,0.22
2012-12-14,52.2,41.6,33.7,44.4,37.2,30.1,91,85,69,29.95,29.75,1,0,1,0.22
2012-12-15,46.9,41.6,35.2,45.2,39.7,32.9,97,93,84,30.03,29.90,1,0,3,0.22
2012-12-16,57.7,50.6,43.7,52.8,47.8,42.4,97,90,77,30.03,29.93,11,0,11,0.22
2012-12-17,56.2,52.4,45.1,54.4,50.2,42.2,100,92,84,30.00,29.88,16,1,16,0.22
2012-12-18,59.4,45.0,36.9,42.6,35.7,30.9,93,72,41,30.10,29.90,10,0,10,0.22
2012-12-19,62.7,41.0,30.6,38.5,31.7,26.8,89,72,37,30.24,30.10,3,0,3,0.22
2012-12-20,66.0,44.4,30.6,38.7,31.5,26.4,88,64,34,30.15,29.93,15,0,15,0.22
2012-12-21,60.7,51.4,44.3,52.5,45.5,34.9,100,81,65,29.94,29.78,18,1,21,0.34
2012-12-22,54.6,50.8,47.7,54.2,50.1,47.1,100,97,88,30.01,29.74,18,1,18,0.77
2012-12-23,53.5,50.7,46.1,53.2,49.5,45.3,100,96,85,30.01,29.76,20,1,20,0.80
2012-12-24,59.7,46.3,39.1,57.5,44.7,38.6,100,95,70,30.12,29.92,5,0,7,0.80
2012-12-25,48.7,43.6,38.1,48.5,42.9,36.6,100,97,94,30.08,29.68,15,0,15,0.80
2012-12-26,52.9,46.5,41.1,52.5,46.5,40.8,100,100,100,30.02,29.77,7,0,7,0.80
2012-12-27,61.4,45.5,37.7,48.1,41.8,35.7,100,88,57,30.11,30.00,5,0,5,0.80
2012-12-28,47.2,40.9,33.9,42.9,38.4,32.0,96,91,83,30.12,29.97,1,0,1,0.80
2012-12-29,58.8,45.4,37.3,47.9,41.9,34.8,98,88,66,30.01,29.92,8,0,8,0.80
2012-12-30,64.3,43.2,34.4,46.2,36.9,31.9,97,81,48,30.10,29.97,4,0,4,0.80
2012-12-31,61.5,42.1,30.8,39.1,33.4,28.2,93,74,40,30.22,30.09,3,0,3,0.80
2013-1-1,61.4,42.9,34.3,44.3,36.5,30.9,90,79,52,30.21,30.12,8,0,8,0.80